Date,TemperatureHighF,TemperatureAvgF,TemperatureLowF,DewpointHighF,DewpointAvgF,DewpointLowF,HumidityHigh,HumidityAvg,HumidityLow,PressureMaxIn,PressureMinIn,WindSpeedMaxMPH,WindSpeedAvgMPH,GustSpeedMaxMPH,PrecipitationSumIn
2013-3-1,29.0,25.6,23.0,27.0,22.0,19.0,92,86,81,29.93,29.74,6,3,0,0.00
2013-3-2,23.0,21.8,21.0,20.0,17.8,17.0,87,84,81,29.92,29.89,6,2,0,0.00
2013-3-3,24.0,21.6,20.0,20.0,16.7,14.0,88,81,72,29.95,29.87,7,3,0,0.00
2013-3-4,30.0,22.0,14.0,16.0,14.7,10.0,84,73,53,30.06,29.94,8,3,0,0.00
2013-3-5,39.0,25.7,13.0,24.0,17.7,9.0,87,73,50,30.07,29.68,3,0,0,0.00
2013-3-6,40.0,33.5,29.0,28.0,24.1,21.0,85,68,54,30.05,29.67,4,0,0,0.00
2013-3-7,36.0,31.5,29.0,31.0,28.2,25.0,92,87,79,30.24,30.04,7,3,0,0.00
2013-3-8,41.0,31.8,27.0,29.0,24.6,21.0,90,76,47,30.37,30.24,8,3,0,0.00
2013-3-9,52.0,36.5,22.0,32.0,24.3,20.0,94,66,32,30.37,30.07,3,0,0,0.00
2013-3-10,66.0,53.4,43.0,34.0,25.8,18.0,45,35,28,30.07,29.83,7,4,0,0.00
2013-3-11,59.0,53.0,46.0,44.0,32.2,27.0,92,47,33,29.85,29.53,7,3,0,0.00
2013-3-12,45.0,36.1,31.0,43.0,30.3,24.0,92,79,68,29.90,29.61,8,3,0,0.00
2013-3-13,33.0,28.1,24.0,26.0,21.8,14.0,89,77,57,30.01,29.81,10,4,0,0.00
2013-3-14,29.0,25.3,23.0,19.0,14.4,12.0,76,63,56,30.14,30.01,10,5,0,0.00
2013-3-15,36.0,30.4,20.0,31.0,24.5,16.0,92,79,68,30.06,29.77,8,3,0,0.00
2013-3-16,34.0,29.2,23.0,30.0,26.0,18.0,92,88,80,29.94,29.63,4,0,0,0.00
2013-3-17,35.0,26.5,20.0,23.0,17.7,12.0,88,71,43,30.21,29.94,4,1,0,0.00
2013-3-18,34.0,27.8,19.0,32.0,21.7,-99.9,91,80,65,30.18,29.59,6,3,0,0.00
2013-3-19,34.0,29.2,24.0,32.0,23.6,16.0,93,80,60,29.85,29.59,10,4,0,0.00
2013-3-20,30.0,24.6,20.0,23.0,16.7,11.0,89,72,54,29.87,29.81,8,3,0,0.00
2013-3-21,25.0,20.8,14.0,22.0,15.4,9.0,90,79,60,29.82,29.77,6,2,0,0.00
2013-3-22,27.0,24.5,22.0,22.0,19.8,18.0,91,82,72,29.96,29.80,5,2,0,0.00
2013-3-23,36.0,27.5,21.0,23.0,19.6,17.0,85,73,52,30.02,29.93,7,1,0,0.00
2013-3-24,36.0,27.3,16.0,22.0,18.1,13.0,89,70,49,30.01,29.50,3,0,0,0.00
2013-3-25,36.0,32.3,30.0,31.0,27.5,20.0,90,83,60,29.70,29.43,3,0,0,0.00
2013-3-26,41.0,33.0,28.0,30.0,27.6,25.0,91,81,59,29.98,29.70,9,2,0,0.00
2013-3-27,38.0,33.3,31.0,30.0,27.0,23.0,91,78,57,30.07,29.96,5,2,0,0.00
2013-3-28,36.0,32.5,30.0,31.0,29.3,27.0,93,88,77,30.19,30.03,6,1,0,0.00
2013-3-29,47.0,37.3,31.0,31.0,26.3,21.0,89,67,40,30.19,30.10,8,2,0,0.00
2013-3-30,53.0,38.0,23.0,27.0,21.9,18.0,87,57,27,30.18,29.94,5,1,0,0.00
2013-3-31,51.0,43.7,36.0,42.0,30.0,-99.9,92,63,39,29.94,29.58,9,2,0,0.00